Time;durP1;ratioP1;P1;durP2;ratioP2;P2;SDS_P1;SDS_P2;PMS_P1;PMS_P2;Temp;Humidity;BMP_temperature;BMP_pressure;BME280_temperature;BME280_humidity;BME280_pressure;Samples;Min_cycle;Max_cycle;Signal;HPM_P1;HPM_P2
2021/01/22 00:00:13;;;;;;;11.85;5.55;;;;;;;8.87;63.23;99886.38;5045898;28;20405;-63
2021/01/22 00:02:38;;;;;;;12.05;5.65;;;;;;;8.84;63.08;99889.97;5057282;28;20112;-63
2021/01/22 00:05:04;;;;;;;12.82;6.85;;;;;;;8.84;62.46;99886.38;5057753;28;20100;-63
2021/01/22 00:07:29;;;;;;;9.48;5.35;;;;;;;8.80;63.13;99886.38;5046936;28;20039;-57
2021/01/22 00:09:54;;;;;;;9.73;5.28;;;;;;;8.85;62.93;99885.97;5057785;28;20025;-60
2021/01/22 00:12:20;;;;;;;12.48;5.95;;;;;;;8.77;62.56;99873.19;5057289;28;20032;-64
2021/01/22 00:14:48;;;;;;;11.85;6.72;;;;;;;8.74;63.50;99879.56;5057790;28;20079;-61
2021/01/22 00:17:14;;;;;;;13.57;5.60;;;;;;;8.71;63.44;99871.97;5057512;28;20020;-63
2021/01/22 00:19:39;;;;;;;12.00;5.80;;;;;;;8.71;63.37;99863.56;5057430;28;20352;-60
2021/01/22 00:22:05;;;;;;;12.23;5.05;;;;;;;8.70;62.63;99875.19;5049290;28;20166;-60
2021/01/22 00:24:30;;;;;;;13.15;5.90;;;;;;;8.64;62.94;99872.78;5057165;28;20021;-60
2021/01/22 00:26:55;;;;;;;13.27;5.05;;;;;;;8.61;63.73;99870.78;5057445;28;20040;-61
2021/01/22 00:29:21;;;;;;;9.68;5.75;;;;;;;8.61;63.03;99873.59;5057082;28;20104;-60
2021/01/22 00:31:46;;;;;;;7.95;4.60;;;;;;;8.62;63.38;99861.19;5057278;28;20059;-60
2021/01/22 00:34:11;;;;;;;13.38;5.18;;;;;;;8.64;62.93;99864.38;5057185;28;20021;-60
2021/01/22 00:36:37;;;;;;;10.82;5.82;;;;;;;8.63;63.10;99861.97;5056916;28;20029;-60
2021/01/22 00:39:03;;;;;;;10.98;5.05;;;;;;;8.58;63.04;99863.19;5054250;28;20025;-59
2021/01/22 00:41:29;;;;;;;10.68;5.38;;;;;;;8.58;63.13;99868.00;5051732;28;20101;-61
2021/01/22 00:43:54;;;;;;;11.27;5.20;;;;;;;8.63;63.13;99867.59;5056031;28;20125;-60
2021/01/22 00:46:19;;;;;;;8.45;5.53;;;;;;;8.60;63.39;99858.00;5056789;28;20108;-60
2021/01/22 00:48:45;;;;;;;13.23;5.72;;;;;;;8.58;63.24;99865.19;5056932;28;20336;-64
2021/01/22 00:51:10;;;;;;;11.88;5.80;;;;;;;8.54;63.91;99856.00;5048958;28;20059;-61
2021/01/22 00:53:35;;;;;;;14.30;6.65;;;;;;;8.52;63.71;99850.00;5056577;28;20319;-60
2021/01/22 00:56:01;;;;;;;11.85;6.30;;;;;;;8.43;63.96;99858.00;5057086;28;20465;-61
2021/01/22 00:58:26;;;;;;;16.08;7.07;;;;;;;8.38;64.03;99861.22;5056911;28;20028;-61
2021/01/22 01:00:51;;;;;;;14.40;8.50;;;;;;;8.31;64.02;99857.19;5056334;28;20024;-60
2021/01/22 01:03:17;;;;;;;16.92;8.35;;;;;;;8.27;64.04;99859.19;5056847;28;20064;-64
2021/01/22 01:05:42;;;;;;;12.20;7.53;;;;;;;8.27;64.01;99847.19;5056565;28;20412;-61
2021/01/22 01:08:07;;;;;;;15.35;8.15;;;;;;;8.24;64.20;99848.78;5056861;28;20416;-63
2021/01/22 01:10:32;;;;;;;18.67;8.27;;;;;;;8.18;64.74;99846.78;5056314;28;20024;-60
2021/01/22 01:12:58;;;;;;;16.85;9.93;;;;;;;8.17;64.89;99842.38;5056444;28;20037;-60
2021/01/22 01:15:23;;;;;;;17.00;8.10;;;;;;;8.19;64.44;99843.56;5056293;28;20017;-64
2021/01/22 01:17:48;;;;;;;18.95;8.95;;;;;;;8.22;64.37;99831.59;5056297;28;20078;-65
2021/01/22 01:20:14;;;;;;;18.85;8.65;;;;;;;8.16;64.37;99838.78;5056527;28;20025;-57
2021/01/22 01:22:39;;;;;;;16.45;8.65;;;;;;;8.12;65.00;99828.78;5047604;28;20388;-57
2021/01/22 01:25:05;;;;;;;18.75;8.73;;;;;;;8.06;65.12;99833.97;5056076;28;20025;-61
2021/01/22 01:27:31;;;;;;;17.77;8.88;;;;;;;8.03;64.75;99829.97;5056025;28;20246;-60
2021/01/22 01:29:56;;;;;;;18.33;8.90;;;;;;;7.99;64.88;99832.00;5056179;28;20017;-61
2021/01/22 01:32:21;;;;;;;20.05;9.35;;;;;;;7.95;65.45;99825.59;5056036;28;20036;-61
2021/01/22 01:34:47;;;;;;;19.55;9.25;;;;;;;7.88;65.28;99821.97;5056001;28;20033;-61
2021/01/22 01:37:12;;;;;;;15.82;8.35;;;;;;;7.86;64.93;99813.16;5057186;28;20039;-60
2021/01/22 01:39:37;;;;;;;19.02;8.48;;;;;;;7.83;65.97;99822.38;5075850;28;20028;-61
2021/01/22 01:42:03;;;;;;;18.77;8.93;;;;;;;7.77;65.52;99821.16;5076043;28;20425;-60
2021/01/22 01:44:28;;;;;;;19.05;8.85;;;;;;;7.72;66.12;99825.97;5075501;28;20080;-61
2021/01/22 01:46:54;;;;;;;16.25;9.07;;;;;;;7.74;66.11;99820.75;5075915;28;20025;-60
2021/01/22 01:49:19;;;;;;;18.10;9.20;;;;;;;7.71;65.80;99813.16;5075538;28;20043;-61
2021/01/22 01:51:45;;;;;;;19.13;7.63;;;;;;;7.69;65.48;99804.38;5074750;28;20029;-63
2021/01/22 01:54:10;;;;;;;17.98;8.88;;;;;;;7.69;65.97;99804.38;5075702;28;20372;-56
2021/01/22 01:56:36;;;;;;;17.17;8.88;;;;;;;7.60;66.28;99789.16;5075480;28;20020;-60
2021/01/22 01:59:02;;;;;;;18.08;9.45;;;;;;;7.59;66.66;99793.16;5075703;28;20052;-61
2021/01/22 02:01:28;;;;;;;15.05;8.80;;;;;;;7.55;66.21;99795.94;5075542;28;20059;-61
2021/01/22 02:03:54;;;;;;;19.85;9.30;;;;;;;7.57;66.42;99792.75;5075895;28;20035;-61
2021/01/22 02:06:19;;;;;;;17.50;7.82;;;;;;;7.64;65.73;99789.97;5075631;28;20483;-58
2021/01/22 02:08:45;;;;;;;16.45;8.43;;;;;;;7.66;65.74;99787.56;5075466;28;20111;-64
2021/01/22 02:11:13;;;;;;;17.25;8.57;;;;;;;7.61;65.97;99776.78;5075584;28;20108;-61
2021/01/22 02:13:41;;;;;;;24.02;8.65;;;;;;;7.59;66.34;99785.56;5072802;28;20541;-61
2021/01/22 02:16:07;;;;;;;18.77;9.65;;;;;;;7.56;66.28;99783.56;5064383;28;20461;-59
2021/01/22 02:18:32;;;;;;;14.85;8.90;;;;;;;7.53;66.57;99784.34;5075358;28;20028;-61
2021/01/22 02:21:27;;;;;;;15.52;8.32;;;;;;;7.47;66.63;99774.78;5075481;28;20032;-60
2021/01/22 02:24:17;;;;;;;14.75;7.57;;;;;;;7.43;66.95;99773.97;5075114;28;20135;-60
2021/01/22 02:26:51;;;;;;;18.55;7.40;;;;;;;7.49;66.79;99777.97;5075258;28;20071;-61
2021/01/22 02:29:17;;;;;;;13.32;7.55;;;;;;;7.50;66.75;99773.97;5075275;28;20047;-61
2021/01/22 02:31:44;;;;;;;16.98;7.15;;;;;;;7.48;66.52;99759.59;5075572;28;20089;-62
2021/01/22 02:34:15;;;;;;;17.67;7.65;;;;;;;7.50;67.10;99762.78;5075266;28;20473;-60
2021/01/22 02:36:44;;;;;;;15.70;7.15;;;;;;;7.52;66.90;99765.19;5075241;28;20076;-61
2021/01/22 02:39:14;;;;;;;15.27;7.60;;;;;;;7.54;66.52;99763.59;5074150;28;20316;-60
2021/01/22 02:41:41;;;;;;;12.98;6.85;;;;;;;7.59;66.28;99760.38;5075160;28;20062;-61
2021/01/22 02:44:08;;;;;;;14.55;7.00;;;;;;;7.57;66.45;99751.59;5074819;28;20123;-60
2021/01/22 02:46:34;;;;;;;16.15;6.50;;;;;;;7.59;66.44;99754.81;5075252;28;20079;-63
2021/01/22 02:48:59;;;;;;;16.38;7.60;;;;;;;7.56;66.37;99746.41;5075381;28;20423;-61
2021/01/22 02:51:25;;;;;;;17.38;7.85;;;;;;;7.56;66.57;99749.19;5074938;28;20031;-60
2021/01/22 02:53:50;;;;;;;13.80;7.28;;;;;;;7.59;66.39;99749.19;5074147;28;20028;-58
2021/01/22 02:56:43;;;;;;;14.23;6.55;;;;;;;7.64;66.13;99757.19;5074967;28;20028;-61
2021/01/22 02:59:38;;;;;;;16.85;5.43;;;;;;;7.72;66.09;99747.63;5075272;28;20074;-61
2021/01/22 03:02:15;;;;;;;18.90;6.03;;;;;;;7.84;65.62;99732.44;5076574;28;20078;-60
2021/01/22 03:04:41;;;;;;;10.10;4.93;;;;;;;7.92;65.68;99739.63;5078898;28;20044;-60
2021/01/22 03:07:09;;;;;;;14.48;5.38;;;;;;;8.05;64.91;99731.63;5079163;28;20095;-61
2021/01/22 03:09:40;;;;;;;14.43;5.78;;;;;;;8.12;65.39;99739.22;5079074;28;20028;-60
2021/01/22 03:12:06;;;;;;;12.70;5.10;;;;;;;8.15;64.85;99736.41;5078731;28;20027;-62
2021/01/22 03:14:33;;;;;;;13.02;5.57;;;;;;;8.21;64.57;99731.97;5078680;28;20020;-61
2021/01/22 03:16:58;;;;;;;10.20;4.60;;;;;;;8.31;64.18;99730.38;5064627;28;20027;-60
2021/01/22 03:19:24;;;;;;;9.93;5.07;;;;;;;8.41;64.57;99737.19;5078675;28;20415;-61
2021/01/22 03:21:49;;;;;;;6.20;4.15;;;;;;;8.42;63.69;99730.38;5078545;28;20039;-63
2021/01/22 03:24:14;;;;;;;9.60;5.30;;;;;;;8.45;63.70;99729.56;5078679;28;20024;-60
2021/01/22 03:26:40;;;;;;;13.98;4.55;;;;;;;8.55;63.52;99726.75;5078337;28;20463;-62
2021/01/22 03:29:05;;;;;;;8.70;4.53;;;;;;;8.56;63.88;99724.75;5067449;28;20074;-62
2021/01/22 03:31:30;;;;;;;10.52;4.22;;;;;;;8.60;63.09;99723.53;5076386;28;20060;-62
2021/01/22 03:33:56;;;;;;;13.48;4.80;;;;;;;8.66;63.52;99727.50;5075879;28;20051;-62
2021/01/22 03:36:21;;;;;;;13.57;5.72;;;;;;;8.64;63.34;99723.50;5078402;28;20094;-60
2021/01/22 03:38:46;;;;;;;7.65;4.82;;;;;;;8.62;62.96;99725.91;5076676;28;20107;-61
2021/01/22 03:41:12;;;;;;;12.68;4.63;;;;;;;8.72;62.87;99716.66;5078456;28;20028;-64
2021/01/22 03:43:37;;;;;;;6.03;3.67;;;;;;;8.77;62.83;99713.47;5078171;28;20063;-61
2021/01/22 03:46:03;;;;;;;8.25;4.53;;;;;;;8.85;61.82;99712.22;5078002;28;20028;-61
2021/01/22 03:48:28;;;;;;;6.13;3.03;;;;;;;8.90;62.34;99713.78;5078148;28;20024;-60
2021/01/22 03:50:53;;;;;;;9.18;3.63;;;;;;;8.91;62.27;99713.38;5078167;28;20025;-61
2021/01/22 03:53:19;;;;;;;9.07;3.92;;;;;;;8.91;61.91;99707.78;5077857;28;20021;-63
2021/01/22 03:55:44;;;;;;;8.07;4.07;;;;;;;8.98;62.16;99704.13;5078195;28;20036;-63
2021/01/22 03:58:10;;;;;;;6.63;3.65;;;;;;;8.99;61.82;99706.53;5078002;28;20316;-63
2021/01/22 04:00:36;;;;;;;9.18;3.75;;;;;;;9.03;61.90;99700.09;5077922;28;20450;-60
2021/01/22 04:03:01;;;;;;;12.80;4.00;;;;;;;8.97;61.62;99692.13;5066419;28;20032;-60
2021/01/22 04:05:26;;;;;;;9.48;3.72;;;;;;;8.99;61.54;99688.91;5077859;28;20021;-61
2021/01/22 04:07:52;;;;;;;6.95;3.58;;;;;;;9.03;61.44;99688.88;5077621;28;20031;-58
2021/01/22 04:10:17;;;;;;;10.20;4.13;;;;;;;9.01;61.54;99675.28;5077600;28;20096;-60
2021/01/22 04:12:43;;;;;;;12.02;4.60;;;;;;;9.01;61.61;99680.88;5077516;28;20111;-60
2021/01/22 04:15:09;;;;;;;8.45;4.00;;;;;;;9.04;61.51;99670.88;5073978;28;20051;-60
2021/01/22 04:17:35;;;;;;;11.55;4.13;;;;;;;8.99;61.40;99670.09;5067248;28;20423;-60
2021/01/22 04:20:01;;;;;;;7.32;3.58;;;;;;;8.91;61.20;99674.16;5077598;28;20059;-61
2021/01/22 04:22:26;;;;;;;7.03;4.53;;;;;;;8.89;62.12;99682.16;5077510;28;20050;-60
2021/01/22 04:24:51;;;;;;;12.75;4.65;;;;;;;8.85;62.11;99673.00;5077490;28;20060;-61
2021/01/22 04:27:17;;;;;;;11.02;5.50;;;;;;;8.77;62.57;99671.44;5077405;28;20028;-60
2021/01/22 04:29:42;;;;;;;8.68;4.75;;;;;;;8.68;62.53;99668.25;5077430;28;20027;-60
2021/01/22 04:32:08;;;;;;;10.95;5.35;;;;;;;8.61;63.23;99669.09;5077430;28;20013;-60
2021/01/22 04:34:34;;;;;;;10.68;5.22;;;;;;;8.56;62.47;99672.31;5077424;28;20031;-61
2021/01/22 04:36:59;;;;;;;9.00;4.88;;;;;;;8.55;62.34;99669.94;5077079;28;20308;-61
2021/01/22 04:39:25;;;;;;;8.77;4.80;;;;;;;8.53;62.47;99661.13;5077208;28;20020;-61
2021/01/22 04:41:51;;;;;;;11.20;4.57;;;;;;;8.56;63.28;99665.94;5051856;28;20029;-60
2021/01/22 04:44:16;;;;;;;10.18;4.57;;;;;;;8.57;62.76;99670.31;5074927;28;20491;-60
2021/01/22 04:46:44;;;;;;;9.85;4.35;;;;;;;8.54;62.85;99668.34;5077077;28;20143;-61
2021/01/22 04:49:10;;;;;;;9.30;4.63;;;;;;;8.56;62.82;99675.13;5075169;28;20035;-61
2021/01/22 04:51:36;;;;;;;9.77;4.70;;;;;;;8.56;62.35;99671.53;5070772;28;20020;-55
2021/01/22 04:54:10;;;;;;;10.98;4.68;;;;;;;8.56;62.17;99663.13;5068924;28;20034;-61
2021/01/22 04:56:38;;;;;;;11.63;5.63;;;;;;;8.55;62.59;99673.53;5076572;28;20031;-61
2021/01/22 04:59:14;;;;;;;10.60;5.93;;;;;;;8.52;62.78;99671.53;5075181;28;20032;-58
2021/01/22 05:01:40;;;;;;;10.90;5.25;;;;;;;8.48;62.53;99673.53;5075454;28;20048;-62
2021/01/22 05:04:06;;;;;;;21.95;8.35;;;;;;;8.41;62.74;99662.38;5076708;28;20497;-59
2021/01/22 05:06:32;;;;;;;17.95;8.63;;;;;;;8.36;62.78;99666.41;5076339;28;20039;-62
2021/01/22 05:08:57;;;;;;;24.85;7.93;;;;;;;8.31;62.98;99666.78;5067516;28;20107;-61
2021/01/22 05:11:22;;;;;;;15.80;8.10;;;;;;;8.22;63.12;99668.44;5076229;28;20020;-62
2021/01/22 05:13:48;;;;;;;17.70;7.70;;;;;;;8.24;63.87;99652.81;5076636;28;20036;-60
2021/01/22 05:16:16;;;;;;;15.65;6.95;;;;;;;8.25;63.24;99651.59;5076664;28;20025;-61
2021/01/22 05:18:44;;;;;;;13.20;6.65;;;;;;;8.22;62.88;99651.63;5062101;28;20036;-63
2021/01/22 05:21:13;;;;;;;14.63;6.00;;;;;;;8.15;63.15;99648.81;5076354;28;20029;-62
2021/01/22 05:23:40;;;;;;;14.82;6.68;;;;;;;8.07;63.25;99643.25;5076073;28;20017;-63
2021/01/22 05:26:07;;;;;;;14.02;7.50;;;;;;;7.99;63.49;99632.50;5075689;28;20036;-63
2021/01/22 05:28:44;;;;;;;16.42;7.55;;;;;;;7.90;64.33;99641.28;5051748;28;20025;-60
2021/01/22 05:31:18;;;;;;;12.20;6.65;;;;;;;7.89;63.81;99644.50;5054003;28;20020;-62
2021/01/22 05:33:59;;;;;;;15.77;6.47;;;;;;;7.84;64.20;99636.50;5053746;28;20057;-63
2021/01/22 05:36:26;;;;;;;15.20;7.28;;;;;;;7.81;64.78;99642.91;5050926;28;20017;-61
2021/01/22 05:38:53;;;;;;;15.48;6.95;;;;;;;7.74;64.90;99627.75;5047391;28;20020;-61
2021/01/22 05:41:19;;;;;;;14.80;7.22;;;;;;;7.68;64.53;99634.16;5048846;28;20032;-62
2021/01/22 05:43:44;;;;;;;15.45;6.88;;;;;;;7.58;65.06;99630.16;5046835;28;20045;-61
2021/01/22 05:46:15;;;;;;;15.68;7.28;;;;;;;7.54;65.62;99632.16;5046336;28;20129;-63
2021/01/22 05:48:41;;;;;;;14.88;7.70;;;;;;;7.49;65.12;99632.56;5046566;28;20054;-60
2021/01/22 05:51:07;;;;;;;22.13;8.30;;;;;;;7.45;65.43;99642.94;5051128;28;20020;-60
2021/01/22 05:53:34;;;;;;;17.08;9.55;;;;;;;7.42;65.66;99629.78;5063676;28;20016;-61
2021/01/22 05:56:16;;;;;;;15.27;8.07;;;;;;;7.47;65.36;99628.56;5065118;28;20033;-61
2021/01/22 05:58:44;;;;;;;19.70;10.18;;;;;;;7.43;65.79;99632.16;5070884;28;20111;-61
2021/01/22 06:01:26;;;;;;;17.80;8.38;;;;;;;7.39;65.92;99627.75;5065850;28;20032;-61
2021/01/22 06:03:53;;;;;;;15.88;9.15;;;;;;;7.42;66.16;99626.97;5070502;28;20066;-63
2021/01/22 06:06:20;;;;;;;16.88;8.68;;;;;;;7.47;65.74;99622.97;5065719;28;20028;-63
2021/01/22 06:08:54;;;;;;;17.63;9.95;;;;;;;7.42;65.54;99619.38;5070616;28;20029;-63
2021/01/22 06:11:24;;;;;;;15.90;8.75;;;;;;;7.37;65.87;99624.56;5065453;28;20416;-63
2021/01/22 06:13:52;;;;;;;27.80;13.15;;;;;;;7.39;66.20;99610.97;5069149;28;20021;-62
2021/01/22 06:16:25;;;;;;;33.65;15.63;;;;;;;7.36;65.64;99615.38;5064900;28;20100;-62
2021/01/22 06:19:04;;;;;;;27.02;11.45;;;;;;;7.41;66.32;99614.19;5050760;28;20024;-61
2021/01/22 06:21:33;;;;;;;31.80;14.23;;;;;;;7.36;65.90;99612.56;5063814;28;20074;-61
2021/01/22 06:24:03;;;;;;;19.13;9.38;;;;;;;7.33;66.44;99604.19;5068782;28;20100;-60
2021/01/22 06:26:30;;;;;;;21.42;10.70;;;;;;;7.28;66.29;99604.59;5064551;28;20086;-61
2021/01/22 06:29:00;;;;;;;30.27;13.23;;;;;;;7.25;66.41;99600.63;5069360;28;20052;-61
2021/01/22 06:31:27;;;;;;;34.50;14.55;;;;;;;7.28;66.22;99607.41;5067531;28;20078;-62
2021/01/22 06:33:54;;;;;;;37.85;15.30;;;;;;;7.31;66.48;99604.59;5068560;28;20012;-63
2021/01/22 06:36:21;;;;;;;26.02;14.20;;;;;;;7.33;66.39;99607.00;5069817;28;20054;-63
2021/01/22 06:38:46;;;;;;;26.67;12.90;;;;;;;7.33;66.01;99605.00;5070549;28;20029;-62
2021/01/22 06:41:13;;;;;;;28.08;12.05;;;;;;;7.36;66.01;99607.00;5074754;28;20020;-62
2021/01/22 06:43:39;;;;;;;29.77;14.18;;;;;;;7.37;65.62;99605.00;5068311;28;20127;-63
2021/01/22 06:46:08;;;;;;;20.38;10.68;;;;;;;7.42;65.63;99604.63;5079253;28;20024;-63
2021/01/22 06:48:52;;;;;;;19.55;10.82;;;;;;;7.52;65.67;99606.59;5079210;28;20027;-60
2021/01/22 06:51:18;;;;;;;15.88;9.13;;;;;;;7.50;65.55;99611.78;5079044;28;20020;-63
2021/01/22 06:54:06;;;;;;;19.33;8.73;;;;;;;7.48;65.50;99608.59;5079214;28;20036;-61
2021/01/22 06:56:38;;;;;;;18.65;8.77;;;;;;;7.48;65.35;99613.41;5078659;28;20319;-61
2021/01/22 06:59:18;;;;;;;13.85;7.38;;;;;;;7.50;65.54;99611.00;5078317;28;20411;-61
2021/01/22 07:01:43;;;;;;;17.23;8.02;;;;;;;7.48;65.67;99614.19;5078752;28;20081;-61
2021/01/22 07:04:09;;;;;;;16.25;8.20;;;;;;;7.53;65.42;99608.19;5078987;28;20421;-61
2021/01/22 07:06:35;;;;;;;13.82;7.22;;;;;;;7.58;64.61;99624.56;5078665;28;20032;-61
2021/01/22 07:09:01;;;;;;;15.82;8.07;;;;;;;7.57;64.82;99616.56;5079161;28;20028;-61
2021/01/22 07:11:53;;;;;;;14.52;8.30;;;;;;;7.56;65.08;99615.78;5078568;28;20039;-61
2021/01/22 07:14:36;;;;;;;19.23;9.60;;;;;;;7.53;65.76;99616.56;5079209;28;20032;-61
2021/01/22 07:17:15;;;;;;;16.45;8.38;;;;;;;7.55;65.29;99628.16;5078580;28;20020;-61
2021/01/22 07:19:48;;;;;;;18.27;7.93;;;;;;;7.59;64.89;99612.16;5065630;28;20104;-62
2021/01/22 07:22:15;;;;;;;13.77;8.82;;;;;;;7.52;65.58;99614.19;5050841;28;20073;-62
2021/01/22 07:24:43;;;;;;;13.93;8.27;;;;;;;7.52;65.18;99619.78;5077619;28;20024;-62
2021/01/22 07:27:13;;;;;;;12.63;7.22;;;;;;;7.52;65.32;99623.38;5078342;28;20017;-61
2021/01/22 07:29:38;;;;;;;12.25;7.43;;;;;;;7.54;65.39;99618.16;5078854;28;20289;-62
2021/01/22 07:32:06;;;;;;;17.27;7.85;;;;;;;7.53;65.32;99610.97;5078225;28;20024;-60
2021/01/22 07:34:43;;;;;;;19.80;8.68;;;;;;;7.58;65.05;99618.97;5078341;28;20319;-61
2021/01/22 07:37:17;;;;;;;13.52;7.50;;;;;;;7.59;65.08;99614.16;5078246;28;20331;-62
2021/01/22 07:39:43;;;;;;;16.73;7.88;;;;;;;7.60;65.20;99607.38;5078198;28;20028;-61
2021/01/22 07:42:14;;;;;;;13.93;7.90;;;;;;;7.62;64.79;99605.78;5078750;28;20039;-61
2021/01/22 07:44:41;;;;;;;19.77;9.38;;;;;;;7.60;65.40;99613.75;5078259;28;20336;-61
2021/01/22 07:47:07;;;;;;;20.45;9.90;;;;;;;7.66;64.91;99609.34;5077605;28;20044;-61
2021/01/22 07:49:33;;;;;;;20.73;10.02;;;;;;;7.70;64.93;99609.38;5078013;28;20062;-61
2021/01/22 07:52:00;;;;;;;12.00;6.72;;;;;;;7.70;65.25;99610.16;5078168;28;20029;-61
2021/01/22 07:54:25;;;;;;;15.77;7.53;;;;;;;7.71;65.22;99608.16;5077794;28;20021;-62
2021/01/22 07:56:51;;;;;;;17.13;7.43;;;;;;;7.75;64.71;99606.16;5078205;28;20024;-62
2021/01/22 07:59:16;;;;;;;12.57;6.38;;;;;;;7.78;64.68;99618.53;5078221;28;20103;-61
2021/01/22 08:01:41;;;;;;;12.50;7.20;;;;;;;7.79;65.05;99606.94;5077540;28;20028;-61
2021/01/22 08:04:07;;;;;;;15.65;7.90;;;;;;;7.79;64.43;99603.34;5078009;28;20364;-61
2021/01/22 08:06:50;;;;;;;22.58;10.40;;;;;;;7.80;64.41;99602.94;5077587;28;20031;-61
2021/01/22 08:09:19;;;;;;;12.38;7.40;;;;;;;7.86;64.65;99609.72;5077873;28;20032;-62
2021/01/22 08:11:47;;;;;;;18.65;7.40;;;;;;;7.90;63.94;99607.72;5077669;28;20052;-64
2021/01/22 08:14:27;;;;;;;15.23;7.28;;;;;;;7.86;64.07;99598.53;5077868;28;20408;-61
2021/01/22 08:16:52;;;;;;;13.60;7.25;;;;;;;7.89;64.61;99599.72;5077685;28;20016;-61
2021/01/22 08:19:23;;;;;;;18.27;7.72;;;;;;;7.89;64.12;99597.72;5067917;28;20371;-61
2021/01/22 08:21:49;;;;;;;17.40;7.90;;;;;;;7.91;64.36;99602.91;5073858;28;20070;-61
2021/01/22 08:24:15;;;;;;;15.65;7.97;;;;;;;7.90;64.10;99601.31;5077712;28;20024;-61
2021/01/22 08:26:40;;;;;;;16.20;9.00;;;;;;;7.91;63.91;99591.72;5077264;28;20066;-60
2021/01/22 08:29:06;;;;;;;14.20;7.78;;;;;;;7.93;64.16;99600.50;5077117;28;20065;-60
2021/01/22 08:31:32;;;;;;;22.60;12.93;;;;;;;7.96;63.77;99610.91;5077427;28;20044;-61
2021/01/22 08:33:59;;;;;;;17.25;10.55;;;;;;;8.00;64.02;99601.31;5077370;28;20094;-61
2021/01/22 08:36:27;;;;;;;36.38;18.88;;;;;;;8.04;64.29;99610.47;5077281;28;20028;-61
2021/01/22 08:38:58;;;;;;;128.07;56.55;;;;;;;8.02;64.50;99604.50;5077189;28;20028;-61
2021/01/22 08:41:25;;;;;;;116.93;49.65;;;;;;;8.04;64.35;99598.50;5077380;28;20013;-61
2021/01/22 08:43:52;;;;;;;47.63;25.35;;;;;;;8.08;64.27;99602.06;5076656;28;20093;-61
2021/01/22 08:46:20;;;;;;;24.38;13.27;;;;;;;8.07;64.55;99595.69;5077373;28;20077;-61
2021/01/22 08:48:46;;;;;;;21.80;9.48;;;;;;;8.16;64.35;99598.03;5077149;28;20021;-61
2021/01/22 08:51:12;;;;;;;21.15;10.10;;;;;;;8.17;64.32;99605.22;5076666;28;20434;-61
2021/01/22 08:53:54;;;;;;;17.33;8.77;;;;;;;8.24;63.96;99599.63;5077317;28;20024;-61
2021/01/22 08:56:22;;;;;;;24.33;8.93;;;;;;;8.31;63.95;99610.00;5076929;28;20025;-61
2021/01/22 08:59:10;;;;;;;16.63;9.25;;;;;;;8.36;63.80;99606.78;5076449;28;20117;-61
2021/01/22 09:01:50;;;;;;;16.73;8.73;;;;;;;8.38;63.32;99609.19;5076564;28;20162;-61
2021/01/22 09:04:21;;;;;;;18.88;9.77;;;;;;;8.43;63.09;99605.97;5076903;28;20383;-61
2021/01/22 09:06:55;;;;;;;25.35;13.05;;;;;;;8.44;63.45;99613.16;5076394;28;20013;-62
2021/01/22 09:09:46;;;;;;;23.70;12.32;;;;;;;8.50;63.29;99594.75;5076731;28;20067;-61
2021/01/22 09:12:26;;;;;;;20.95;10.30;;;;;;;8.63;63.91;99598.66;5076690;28;20059;-62
2021/01/22 09:14:53;;;;;;;21.67;9.63;;;;;;;8.72;62.98;99589.78;5076557;28;20061;-61
2021/01/22 09:17:20;;;;;;;22.75;8.90;;;;;;;8.77;63.26;99584.56;5076804;28;20086;-62
2021/01/22 09:19:59;;;;;;;17.10;8.73;;;;;;;8.82;63.16;99580.53;5062610;28;20047;-61
2021/01/22 09:22:30;;;;;;;15.32;8.15;;;;;;;8.92;62.24;99590.88;5051287;28;20051;-62
2021/01/22 09:24:56;;;;;;;15.90;7.97;;;;;;;9.02;61.96;99572.38;5076179;28;20297;-62
2021/01/22 09:27:21;;;;;;;18.23;8.30;;;;;;;9.06;62.76;99587.19;5076438;28;20078;-62
2021/01/22 09:29:47;;;;;;;17.08;7.05;;;;;;;9.21;62.74;99583.03;5076319;28;20035;-62
2021/01/22 09:32:12;;;;;;;15.65;8.00;;;;;;;9.35;61.70;99579.34;5076196;28;20312;-63
2021/01/22 09:34:38;;;;;;;14.68;7.72;;;;;;;9.48;62.33;99586.00;5076064;28;20024;-62
2021/01/22 09:37:04;;;;;;;17.25;7.80;;;;;;;9.65;61.15;99573.03;5075948;28;20073;-63
2021/01/22 09:39:29;;;;;;;11.32;7.25;;;;;;;9.76;61.51;99557.69;5076032;28;20412;-62
2021/01/22 09:41:54;;;;;;;16.00;6.93;;;;;;;9.91;61.00;99552.72;5076149;28;20031;-62
2021/01/22 09:44:20;;;;;;;15.38;6.90;;;;;;;10.03;60.02;99549.34;5075900;28;20045;-62
2021/01/22 09:46:45;;;;;;;15.55;6.75;;;;;;;10.09;60.14;99533.63;5076159;28;20024;-62
2021/01/22 09:49:11;;;;;;;16.73;7.68;;;;;;;10.15;59.34;99533.97;5076134;28;20056;-62
2021/01/22 09:51:36;;;;;;;13.43;7.00;;;;;;;10.16;59.75;99533.56;5075830;28;20028;-62
2021/01/22 09:54:02;;;;;;;13.02;7.60;;;;;;;10.15;59.02;99537.59;5075049;28;20025;-61
2021/01/22 09:56:27;;;;;;;12.57;7.50;;;;;;;10.19;59.56;99541.13;5075278;28;20416;-62
2021/01/22 09:58:53;;;;;;;16.23;6.70;;;;;;;10.31;59.37;99541.81;5075945;28;20658;-62
2021/01/22 10:01:18;;;;;;;16.85;6.60;;;;;;;10.40;59.35;99528.03;5075949;28;20028;-62
2021/01/22 10:03:43;;;;;;;13.13;6.15;;;;;;;10.46;59.49;99529.19;5075805;28;20020;-62
2021/01/22 10:06:12;;;;;;;15.13;6.30;;;;;;;10.59;59.03;99530.19;5075533;28;20086;-63
2021/01/22 10:08:38;;;;;;;16.17;6.68;;;;;;;10.67;58.69;99525.25;5075999;28;20024;-62
2021/01/22 10:11:03;;;;;;;15.07;6.22;;;;;;;10.71;58.80;99524.00;5075317;28;20028;-62
2021/01/22 10:13:29;;;;;;;20.92;11.07;;;;;;;10.76;58.52;99528.34;5074213;28;20024;-62
2021/01/22 10:15:54;;;;;;;18.20;9.68;;;;;;;10.76;59.02;99523.50;5075686;28;20021;-62
2021/01/22 10:18:20;;;;;;;20.85;10.40;;;;;;;10.76;58.65;99529.13;5075835;28;20411;-63
2021/01/22 10:20:48;;;;;;;16.50;7.63;;;;;;;10.73;59.09;99518.75;5067411;28;20075;-64
2021/01/22 10:23:14;;;;;;;13.93;8.50;;;;;;;10.72;58.99;99522.78;5068690;28;20028;-62
2021/01/22 10:25:39;;;;;;;14.35;6.85;;;;;;;10.70;58.96;99541.28;5075316;28;20327;-62
2021/01/22 10:28:05;;;;;;;17.38;7.72;;;;;;;10.71;59.02;99535.22;5075574;28;20021;-62
2021/01/22 10:30:30;;;;;;;14.02;7.45;;;;;;;10.68;59.07;99515.59;5075328;28;20048;-62
2021/01/22 10:32:56;;;;;;;13.90;7.25;;;;;;;10.65;59.18;99525.66;5075529;28;20040;-62
2021/01/22 10:35:21;;;;;;;16.35;8.70;;;;;;;10.64;59.32;99521.25;5075193;28;20028;-62
2021/01/22 10:37:46;;;;;;;14.98;8.00;;;;;;;10.63;59.50;99522.50;5075312;28;20058;-62
2021/01/22 10:40:12;;;;;;;17.48;7.53;;;;;;;10.66;59.60;99521.63;5075520;28;20415;-62
2021/01/22 10:42:38;;;;;;;17.60;7.13;;;;;;;10.69;58.77;99512.38;5075365;28;20039;-62
2021/01/22 10:45:03;;;;;;;13.13;7.55;;;;;;;10.76;58.71;99514.28;5074949;28;20048;-62
2021/01/22 10:47:29;;;;;;;12.80;6.50;;;;;;;10.81;58.42;99517.41;5075359;28;20033;-62
2021/01/22 10:49:55;;;;;;;20.25;7.43;;;;;;;10.87;58.39;99511.28;5075132;28;20439;-63
2021/01/22 10:52:21;;;;;;;16.55;7.22;;;;;;;11.00;57.88;99515.09;5075132;28;20032;-63
2021/01/22 10:54:46;;;;;;;15.40;6.72;;;;;;;11.11;57.65;99501.66;5074825;28;20016;-62
2021/01/22 10:57:11;;;;;;;14.32;7.50;;;;;;;11.09;57.48;99492.84;5075341;28;20293;-61
2021/01/22 10:59:38;;;;;;;21.13;8.25;;;;;;;11.11;57.83;99488.38;5074790;28;20050;-61
2021/01/22 11:02:10;;;;;;;12.10;5.80;;;;;;;11.17;57.72;99482.25;5075345;28;20021;-62
2021/01/22 11:04:38;;;;;;;15.32;6.80;;;;;;;11.15;58.09;99483.50;5074974;28;20099;-61
2021/01/22 11:07:04;;;;;;;11.32;5.00;;;;;;;11.22;57.86;99487.38;5073801;28;20016;-61
2021/01/22 11:09:32;;;;;;;14.52;6.05;;;;;;;11.20;58.25;99468.13;5074760;28;20116;-63
2021/01/22 11:11:58;;;;;;;14.00;5.93;;;;;;;11.20;58.23;99470.94;5074936;28;20107;-62
2021/01/22 11:14:23;;;;;;;14.27;5.97;;;;;;;11.19;58.44;99474.97;5074994;28;20111;-62
2021/01/22 11:16:48;;;;;;;10.55;6.03;;;;;;;11.19;58.90;99460.91;5074776;28;20017;-62
2021/01/22 11:19:14;;;;;;;16.92;6.22;;;;;;;11.24;58.25;99462.47;5075129;28;20020;-62
2021/01/22 11:21:39;;;;;;;14.25;6.18;;;;;;;11.26;57.87;99446.75;5060569;28;20286;-62
2021/01/22 11:24:05;;;;;;;20.05;7.22;;;;;;;11.27;57.89;99445.53;5077741;28;20070;-63
2021/01/22 11:26:31;;;;;;;10.82;5.90;;;;;;;11.26;58.34;99443.94;5078592;28;20021;-64
2021/01/22 11:28:56;;;;;;;12.98;6.47;;;;;;;11.27;58.43;99450.34;5078562;28;20085;-61
2021/01/22 11:31:22;;;;;;;13.70;6.13;;;;;;;11.32;58.45;99441.41;5078521;28;20141;-62
2021/01/22 11:33:47;;;;;;;22.27;7.40;;;;;;;11.35;58.36;99434.91;5078394;28;20036;-63